コペンハーゲン の空港の天気 - METARとTAF

コペンハーゲン国際空港 ( EKCH / CPH ) - デンマーク コペンハーゲン
飛行場実況気象(Metar)
観測時間01/20 18:50 CET (01/20 17:50 UTC)
風向・風速西 6m/s
視程10km以上
天気現象
全天の8割程度の雲 雲底高度 730m
気温5℃
湿度93%
気圧1030hPa
METAREKCH 201750Z 28011KT 9999 BKN024 05/04 Q1030 NOSIG
過去の天気等 Google飛行場航空写真 Wunderground天気予報

過去48時間のMETAR

飛行場予報(TAF)
発表時間: 1/20 18:05 CET (1/20 17:05 UTC)
予報対象時間: 20日19時 CET ~ 21日19時 CET
風向・風速西 6m/s
視程10km以上
全天の4割程度の雲 雲底高度 460m
20日19時 CET ~ 20日22時 CET に徐々に
風向・風速西 3m/s
視程4,000m
天気現象もや
全天の8割程度の雲 雲底高度 240m
20日22時 CET ~ 21日19時 CET に一時的に
視程1,200m
全天の8割程度の雲 雲底高度 60m
TAF EKCH 201705Z 2018/2118 28012KT 9999 SCT015
BECMG 2018/2021 27005KT 4000 BR BKN008
TEMPO 2021/2118 1200 BKN002